sensor_id;sensor_type;location;lat;lon;timestamp;temperature;humidity
53643;DHT22;39546;45.534;12.048;2022-11-20T00:01:58;11.30;87.70
53643;DHT22;39546;45.534;12.048;2022-11-20T00:08:00;11.30;87.80
53643;DHT22;39546;45.534;12.048;2022-11-20T00:14:02;11.20;87.80
53643;DHT22;39546;45.534;12.048;2022-11-20T00:20:05;11.20;87.80
53643;DHT22;39546;45.534;12.048;2022-11-20T00:26:12;11.20;87.80
53643;DHT22;39546;45.534;12.048;2022-11-20T00:32:14;11.20;87.80
53643;DHT22;39546;45.534;12.048;2022-11-20T00:38:15;11.20;87.70
53643;DHT22;39546;45.534;12.048;2022-11-20T00:44:17;11.30;87.70
53643;DHT22;39546;45.534;12.048;2022-11-20T00:50:20;11.20;87.70
53643;DHT22;39546;45.534;12.048;2022-11-20T00:56:21;11.10;87.70
53643;DHT22;39546;45.534;12.048;2022-11-20T01:02:23;11.10;87.80
53643;DHT22;39546;45.534;12.048;2022-11-20T01:08:25;11.20;87.80
53643;DHT22;39546;45.534;12.048;2022-11-20T01:14:30;11.20;87.80
53643;DHT22;39546;45.534;12.048;2022-11-20T01:20:35;11.20;87.60
53643;DHT22;39546;45.534;12.048;2022-11-20T01:26:39;11.20;87.60
53643;DHT22;39546;45.534;12.048;2022-11-20T01:33:04;11.20;87.60
53643;DHT22;39546;45.534;12.048;2022-11-20T01:39:26;11.20;87.60
53643;DHT22;39546;45.534;12.048;2022-11-20T01:52:03;11.20;87.50
53643;DHT22;39546;45.534;12.048;2022-11-20T01:58:06;11.20;87.50
53643;DHT22;39546;45.534;12.048;2022-11-20T02:04:10;11.10;87.50
53643;DHT22;39546;45.534;12.048;2022-11-20T02:10:12;11.10;87.50
53643;DHT22;39546;45.534;12.048;2022-11-20T02:16:27;11.00;87.50
53643;DHT22;39546;45.534;12.048;2022-11-20T02:22:41;11.10;87.40
53643;DHT22;39546;45.534;12.048;2022-11-20T02:28:52;11.10;87.40
53643;DHT22;39546;45.534;12.048;2022-11-20T02:34:54;11.10;87.40
53643;DHT22;39546;45.534;12.048;2022-11-20T02:40:56;11.00;87.40
53643;DHT22;39546;45.534;12.048;2022-11-20T02:46:59;11.00;87.40
53643;DHT22;39546;45.534;12.048;2022-11-20T02:53:00;11.00;87.40
53643;DHT22;39546;45.534;12.048;2022-11-20T02:59:02;11.00;87.30
53643;DHT22;39546;45.534;12.048;2022-11-20T03:05:05;11.00;87.20
53643;DHT22;39546;45.534;12.048;2022-11-20T03:11:07;10.90;87.20
53643;DHT22;39546;45.534;12.048;2022-11-20T03:17:09;10.90;87.30
53643;DHT22;39546;45.534;12.048;2022-11-20T03:23:11;10.80;87.20
53643;DHT22;39546;45.534;12.048;2022-11-20T03:29:13;10.80;87.10
53643;DHT22;39546;45.534;12.048;2022-11-20T03:35:15;10.70;87.20
53643;DHT22;39546;45.534;12.048;2022-11-20T03:41:20;10.70;87.20
53643;DHT22;39546;45.534;12.048;2022-11-20T03:47:22;10.70;87.10
53643;DHT22;39546;45.534;12.048;2022-11-20T03:53:24;10.60;87.10
53643;DHT22;39546;45.534;12.048;2022-11-20T03:59:26;10.60;87.00
53643;DHT22;39546;45.534;12.048;2022-11-20T04:05:28;10.50;86.90
53643;DHT22;39546;45.534;12.048;2022-11-20T04:11:32;10.50;86.80
53643;DHT22;39546;45.534;12.048;2022-11-20T04:17:34;10.50;86.70
53643;DHT22;39546;45.534;12.048;2022-11-20T04:23:37;10.40;86.80
53643;DHT22;39546;45.534;12.048;2022-11-20T04:29:39;10.40;86.70
53643;DHT22;39546;45.534;12.048;2022-11-20T04:35:41;10.40;86.60
53643;DHT22;39546;45.534;12.048;2022-11-20T04:41:43;10.40;86.60
53643;DHT22;39546;45.534;12.048;2022-11-20T04:47:45;10.30;86.60
53643;DHT22;39546;45.534;12.048;2022-11-20T04:53:47;10.30;86.70
53643;DHT22;39546;45.534;12.048;2022-11-20T04:59:50;10.30;86.80
53643;DHT22;39546;45.534;12.048;2022-11-20T05:05:52;10.30;86.90
53643;DHT22;39546;45.534;12.048;2022-11-20T05:11:54;10.30;86.80
53643;DHT22;39546;45.534;12.048;2022-11-20T05:17:56;10.20;86.90
53643;DHT22;39546;45.534;12.048;2022-11-20T05:23:58;10.20;86.80
53643;DHT22;39546;45.534;12.048;2022-11-20T05:30:00;10.20;86.80
53643;DHT22;39546;45.534;12.048;2022-11-20T05:36:03;10.10;86.70
53643;DHT22;39546;45.534;12.048;2022-11-20T05:42:05;10.00;86.70
53643;DHT22;39546;45.534;12.048;2022-11-20T05:48:26;10.00;86.80
53643;DHT22;39546;45.534;12.048;2022-11-20T05:54:28;9.90;86.90
53643;DHT22;39546;45.534;12.048;2022-11-20T06:00:30;9.90;86.80
53643;DHT22;39546;45.534;12.048;2022-11-20T06:06:31;9.80;86.90
53643;DHT22;39546;45.534;12.048;2022-11-20T06:12:34;9.80;87.00
53643;DHT22;39546;45.534;12.048;2022-11-20T06:18:36;9.90;86.80
53643;DHT22;39546;45.534;12.048;2022-11-20T06:24:38;9.90;86.70
53643;DHT22;39546;45.534;12.048;2022-11-20T06:30:53;9.80;86.70
53643;DHT22;39546;45.534;12.048;2022-11-20T06:36:56;9.60;86.70
53643;DHT22;39546;45.534;12.048;2022-11-20T06:42:58;9.50;87.00
53643;DHT22;39546;45.534;12.048;2022-11-20T06:49:00;9.60;87.00
53643;DHT22;39546;45.534;12.048;2022-11-20T06:55:02;9.70;86.90
53643;DHT22;39546;45.534;12.048;2022-11-20T07:01:10;9.70;86.80
53643;DHT22;39546;45.534;12.048;2022-11-20T07:07:13;9.70;86.60
53643;DHT22;39546;45.534;12.048;2022-11-20T07:13:16;9.70;86.60
53643;DHT22;39546;45.534;12.048;2022-11-20T07:19:18;9.60;86.80
53643;DHT22;39546;45.534;12.048;2022-11-20T07:25:20;9.60;86.90
53643;DHT22;39546;45.534;12.048;2022-11-20T07:31:22;9.60;86.80
53643;DHT22;39546;45.534;12.048;2022-11-20T07:37:24;9.50;86.90
53643;DHT22;39546;45.534;12.048;2022-11-20T07:43:26;9.60;86.80
53643;DHT22;39546;45.534;12.048;2022-11-20T07:49:28;9.50;86.90
53643;DHT22;39546;45.534;12.048;2022-11-20T07:55:31;9.40;86.90
53643;DHT22;39546;45.534;12.048;2022-11-20T08:01:33;9.40;87.00
53643;DHT22;39546;45.534;12.048;2022-11-20T08:07:42;9.40;86.90
53643;DHT22;39546;45.534;12.048;2022-11-20T08:13:45;9.50;86.90
53643;DHT22;39546;45.534;12.048;2022-11-20T08:20:06;9.50;86.90
53643;DHT22;39546;45.534;12.048;2022-11-20T08:26:08;9.40;86.80
53643;DHT22;39546;45.534;12.048;2022-11-20T08:32:10;9.40;86.70
53643;DHT22;39546;45.534;12.048;2022-11-20T08:38:12;9.30;86.70
53643;DHT22;39546;45.534;12.048;2022-11-20T08:44:15;9.40;86.60
53643;DHT22;39546;45.534;12.048;2022-11-20T08:50:18;9.50;86.50
53643;DHT22;39546;45.534;12.048;2022-11-20T08:56:21;9.70;86.30
53643;DHT22;39546;45.534;12.048;2022-11-20T09:02:23;9.80;85.50
53643;DHT22;39546;45.534;12.048;2022-11-20T09:08:55;9.90;84.80
53643;DHT22;39546;45.534;12.048;2022-11-20T09:14:58;10.00;83.90
53643;DHT22;39546;45.534;12.048;2022-11-20T09:21:02;10.20;83.70
53643;DHT22;39546;45.534;12.048;2022-11-20T09:27:05;10.30;83.70
53643;DHT22;39546;45.534;12.048;2022-11-20T09:33:08;10.50;83.80
53643;DHT22;39546;45.534;12.048;2022-11-20T09:39:10;10.70;83.80
53643;DHT22;39546;45.534;12.048;2022-11-20T09:45:15;10.80;83.50
53643;DHT22;39546;45.534;12.048;2022-11-20T09:58:13;11.20;82.80
53643;DHT22;39546;45.534;12.048;2022-11-20T10:04:19;11.30;82.70
53643;DHT22;39546;45.534;12.048;2022-11-20T10:23:20;11.80;82.30
53643;DHT22;39546;45.534;12.048;2022-11-20T10:29:34;12.00;82.00
53643;DHT22;39546;45.534;12.048;2022-11-20T10:35:50;12.20;81.80
53643;DHT22;39546;45.534;12.048;2022-11-20T10:41:56;12.30;81.50
53643;DHT22;39546;45.534;12.048;2022-11-20T10:48:10;12.50;81.20
53643;DHT22;39546;45.534;12.048;2022-11-20T10:54:48;12.80;80.50
53643;DHT22;39546;45.534;12.048;2022-11-20T11:00:51;13.00;79.50
53643;DHT22;39546;45.534;12.048;2022-11-20T11:06:56;13.20;78.50
53643;DHT22;39546;45.534;12.048;2022-11-20T11:13:00;13.40;78.50
53643;DHT22;39546;45.534;12.048;2022-11-20T11:19:11;13.70;77.80
53643;DHT22;39546;45.534;12.048;2022-11-20T11:25:40;13.80;77.20
53643;DHT22;39546;45.534;12.048;2022-11-20T11:31:42;14.00;77.00
53643;DHT22;39546;45.534;12.048;2022-11-20T11:37:45;13.90;76.30
53643;DHT22;39546;45.534;12.048;2022-11-20T11:43:54;14.00;76.20
53643;DHT22;39546;45.534;12.048;2022-11-20T11:50:19;13.90;75.60
53643;DHT22;39546;45.534;12.048;2022-11-20T11:56:23;13.90;75.60
53643;DHT22;39546;45.534;12.048;2022-11-20T12:02:29;13.90;75.50
53643;DHT22;39546;45.534;12.048;2022-11-20T12:08:50;13.80;74.90
53643;DHT22;39546;45.534;12.048;2022-11-20T12:14:55;13.70;74.70
53643;DHT22;39546;45.534;12.048;2022-11-20T12:33:54;13.60;74.20
53643;DHT22;39546;45.534;12.048;2022-11-20T12:47:24;13.60;74.20
53643;DHT22;39546;45.534;12.048;2022-11-20T13:06:16;13.80;73.90
53643;DHT22;39546;45.534;12.048;2022-11-20T13:12:36;13.80;73.80
53643;DHT22;39546;45.534;12.048;2022-11-20T13:18:40;13.80;73.70
53643;DHT22;39546;45.534;12.048;2022-11-20T13:24:51;13.80;74.20
53643;DHT22;39546;45.534;12.048;2022-11-20T13:30:55;13.70;74.50
53643;DHT22;39546;45.534;12.048;2022-11-20T13:36:59;13.60;74.50
53643;DHT22;39546;45.534;12.048;2022-11-20T13:43:21;13.60;74.40
53643;DHT22;39546;45.534;12.048;2022-11-20T13:55:40;13.60;74.80
53643;DHT22;39546;45.534;12.048;2022-11-20T14:02:16;13.50;74.70
53643;DHT22;39546;45.534;12.048;2022-11-20T14:08:36;13.50;74.60
53643;DHT22;39546;45.534;12.048;2022-11-20T14:14:49;13.50;74.30
53643;DHT22;39546;45.534;12.048;2022-11-20T14:20:52;13.50;74.20
53643;DHT22;39546;45.534;12.048;2022-11-20T14:26:54;13.50;74.40
53643;DHT22;39546;45.534;12.048;2022-11-20T14:33:01;13.50;74.20
53643;DHT22;39546;45.534;12.048;2022-11-20T14:39:03;13.50;74.50
53643;DHT22;39546;45.534;12.048;2022-11-20T14:45:11;13.40;74.70
53643;DHT22;39546;45.534;12.048;2022-11-20T14:51:35;13.20;74.70
53643;DHT22;39546;45.534;12.048;2022-11-20T14:57:43;13.10;74.80
53643;DHT22;39546;45.534;12.048;2022-11-20T15:04:09;13.10;75.20
53643;DHT22;39546;45.534;12.048;2022-11-20T15:10:25;13.00;75.40
53643;DHT22;39546;45.534;12.048;2022-11-20T15:16:27;13.00;75.90
53643;DHT22;39546;45.534;12.048;2022-11-20T15:22:29;12.90;76.30
53643;DHT22;39546;45.534;12.048;2022-11-20T15:28:43;12.70;76.80
53643;DHT22;39546;45.534;12.048;2022-11-20T15:34:46;12.70;77.40
53643;DHT22;39546;45.534;12.048;2022-11-20T15:40:49;12.50;77.90
53643;DHT22;39546;45.534;12.048;2022-11-20T15:46:51;12.40;78.30
53643;DHT22;39546;45.534;12.048;2022-11-20T15:52:53;12.30;78.70
53643;DHT22;39546;45.534;12.048;2022-11-20T15:58:55;12.20;79.10
53643;DHT22;39546;45.534;12.048;2022-11-20T16:04:56;12.10;79.40
53643;DHT22;39546;45.534;12.048;2022-11-20T16:10:58;12.00;79.70
53643;DHT22;39546;45.534;12.048;2022-11-20T16:17:01;11.90;80.00
53643;DHT22;39546;45.534;12.048;2022-11-20T16:23:05;11.80;80.40
53643;DHT22;39546;45.534;12.048;2022-11-20T16:29:08;11.80;80.60
53643;DHT22;39546;45.534;12.048;2022-11-20T16:35:10;11.70;80.70
53643;DHT22;39546;45.534;12.048;2022-11-20T16:41:13;11.70;80.90
53643;DHT22;39546;45.534;12.048;2022-11-20T16:47:15;11.60;81.40
53643;DHT22;39546;45.534;12.048;2022-11-20T16:53:18;11.50;81.50
53643;DHT22;39546;45.534;12.048;2022-11-20T16:59:44;11.40;81.40
53643;DHT22;39546;45.534;12.048;2022-11-20T17:06:18;11.40;81.40
53643;DHT22;39546;45.534;12.048;2022-11-20T17:12:20;11.30;81.60
53643;DHT22;39546;45.534;12.048;2022-11-20T17:18:22;11.30;81.80
53643;DHT22;39546;45.534;12.048;2022-11-20T17:24:24;11.30;81.80
53643;DHT22;39546;45.534;12.048;2022-11-20T17:30:26;11.30;81.80
53643;DHT22;39546;45.534;12.048;2022-11-20T17:36:29;11.30;81.80
53643;DHT22;39546;45.534;12.048;2022-11-20T17:42:35;11.20;81.90
53643;DHT22;39546;45.534;12.048;2022-11-20T17:48:38;11.20;81.90
53643;DHT22;39546;45.534;12.048;2022-11-20T17:55:04;11.20;82.00
53643;DHT22;39546;45.534;12.048;2022-11-20T18:01:07;11.20;82.00
53643;DHT22;39546;45.534;12.048;2022-11-20T18:07:10;11.20;82.10
53643;DHT22;39546;45.534;12.048;2022-11-20T18:13:13;11.10;82.10
53643;DHT22;39546;45.534;12.048;2022-11-20T18:19:45;11.10;82.30
53643;DHT22;39546;45.534;12.048;2022-11-20T18:25:48;11.00;82.40
53643;DHT22;39546;45.534;12.048;2022-11-20T18:31:50;10.90;82.60
53643;DHT22;39546;45.534;12.048;2022-11-20T18:37:52;10.90;82.60
53643;DHT22;39546;45.534;12.048;2022-11-20T18:43:54;10.80;82.50
53643;DHT22;39546;45.534;12.048;2022-11-20T18:50:14;10.70;82.70
53643;DHT22;39546;45.534;12.048;2022-11-20T18:56:16;10.70;83.10
53643;DHT22;39546;45.534;12.048;2022-11-20T19:02:19;10.70;83.00
53643;DHT22;39546;45.534;12.048;2022-11-20T19:08:21;10.70;82.90
53643;DHT22;39546;45.534;12.048;2022-11-20T19:14:23;10.70;82.90
53643;DHT22;39546;45.534;12.048;2022-11-20T19:20:27;10.70;82.90
53643;DHT22;39546;45.534;12.048;2022-11-20T19:26:30;10.60;83.10
53643;DHT22;39546;45.534;12.048;2022-11-20T19:32:33;10.50;83.60
53643;DHT22;39546;45.534;12.048;2022-11-20T19:38:37;10.50;84.10
53643;DHT22;39546;45.534;12.048;2022-11-20T19:44:39;10.50;84.20
53643;DHT22;39546;45.534;12.048;2022-11-20T19:50:42;10.30;84.20
53643;DHT22;39546;45.534;12.048;2022-11-20T19:56:44;10.30;84.20
53643;DHT22;39546;45.534;12.048;2022-11-20T20:02:47;10.30;84.30
53643;DHT22;39546;45.534;12.048;2022-11-20T20:09:11;10.20;84.20
53643;DHT22;39546;45.534;12.048;2022-11-20T20:15:14;10.20;84.20
53643;DHT22;39546;45.534;12.048;2022-11-20T20:21:16;10.20;84.30
53643;DHT22;39546;45.534;12.048;2022-11-20T20:27:23;10.20;84.20
53643;DHT22;39546;45.534;12.048;2022-11-20T20:33:25;10.20;84.10
53643;DHT22;39546;45.534;12.048;2022-11-20T20:39:27;10.10;84.00
53643;DHT22;39546;45.534;12.048;2022-11-20T20:45:30;10.10;84.00
53643;DHT22;39546;45.534;12.048;2022-11-20T20:51:32;10.10;83.90
53643;DHT22;39546;45.534;12.048;2022-11-20T20:57:34;10.00;83.90
53643;DHT22;39546;45.534;12.048;2022-11-20T21:03:37;10.00;83.90
53643;DHT22;39546;45.534;12.048;2022-11-20T21:09:39;10.00;83.80
53643;DHT22;39546;45.534;12.048;2022-11-20T21:15:41;10.00;84.00
53643;DHT22;39546;45.534;12.048;2022-11-20T21:21:43;10.00;84.00
53643;DHT22;39546;45.534;12.048;2022-11-20T21:28:03;10.00;84.10
53643;DHT22;39546;45.534;12.048;2022-11-20T21:34:10;10.00;84.00
53643;DHT22;39546;45.534;12.048;2022-11-20T21:40:13;10.10;84.10
53643;DHT22;39546;45.534;12.048;2022-11-20T21:46:15;10.10;84.10
53643;DHT22;39546;45.534;12.048;2022-11-20T21:52:17;10.20;84.20
53643;DHT22;39546;45.534;12.048;2022-11-20T21:58:19;10.20;84.30
53643;DHT22;39546;45.534;12.048;2022-11-20T22:04:21;10.10;84.30
53643;DHT22;39546;45.534;12.048;2022-11-20T22:10:25;10.10;84.40
53643;DHT22;39546;45.534;12.048;2022-11-20T22:16:28;10.10;84.50
53643;DHT22;39546;45.534;12.048;2022-11-20T22:22:36;10.10;84.70
53643;DHT22;39546;45.534;12.048;2022-11-20T22:35:01;10.00;85.00
53643;DHT22;39546;45.534;12.048;2022-11-20T22:41:12;10.00;85.10
53643;DHT22;39546;45.534;12.048;2022-11-20T22:47:14;10.00;85.30
53643;DHT22;39546;45.534;12.048;2022-11-20T22:53:16;10.10;85.20
53643;DHT22;39546;45.534;12.048;2022-11-20T22:59:18;10.00;85.30
53643;DHT22;39546;45.534;12.048;2022-11-20T23:05:20;10.00;85.30
53643;DHT22;39546;45.534;12.048;2022-11-20T23:11:25;9.90;85.40
53643;DHT22;39546;45.534;12.048;2022-11-20T23:17:28;10.00;85.60
53643;DHT22;39546;45.534;12.048;2022-11-20T23:23:32;9.90;85.70
53643;DHT22;39546;45.534;12.048;2022-11-20T23:29:34;9.80;85.60
53643;DHT22;39546;45.534;12.048;2022-11-20T23:35:39;9.70;85.50
53643;DHT22;39546;45.534;12.048;2022-11-20T23:41:41;9.70;85.60
53643;DHT22;39546;45.534;12.048;2022-11-20T23:47:43;9.70;85.70
53643;DHT22;39546;45.534;12.048;2022-11-20T23:53:45;9.60;85.60
53643;DHT22;39546;45.534;12.048;2022-11-20T23:59:47;9.50;85.70
